ADDS METAR Data INFO
IDs: Format: Raw Decoded Include TAF

Data at: 0752 UTC 24 May 2018

K5T9 240735Z AUTO 12007G12KT 10SM SCT048 BKN055 26/20 A3002 RMK A01
K5T9 240715Z AUTO 11008KT 10SM BKN050 OVC055 27/19 A3002 RMK A01
K5T9 240655Z AUTO 10007KT 10SM OVC055 27/19 A3003 RMK A01
K5T9 240635Z AUTO 09007KT 10SM BKN055 27/19 A3002 RMK A01
K5T9 240615Z AUTO 08006KT 10SM SCT050 27/19 A3001 RMK A01
K5T9 240555Z AUTO 10006KT 10SM SCT055 BKN070 BKN080 28/18 A3000 RMK A01
K5T9 240535Z AUTO 09005KT 10SM BKN060 OVC070 28/18 A3001 RMK A01
K5T9 240515Z AUTO 08005KT 10SM BKN065 BKN075 OVC085 28/17 A3001 RMK A01
K5T9 240455Z AUTO 09006KT 10SM OVC070 28/17 A3000 RMK A01
K5T9 240435Z AUTO 10006KT 10SM BKN070 29/16 A2998 RMK A01
K5T9 240415Z AUTO 10006KT 10SM FEW070 29/16 A2997 RMK A01
K5T9 240355Z AUTO 11010KT 10SM BKN070 BKN085 30/16 A2996 RMK A01
K5T9 240335Z AUTO 11008KT 10SM FEW070 BKN090 30/15 A2996 RMK A01
K5T9 240315Z AUTO 09005KT 10SM SCT080 SCT090 30/15 A2995 RMK A01
K5T9 240255Z AUTO 10007KT 10SM BKN080 30/15 A2994 RMK A01
K5T9 240235Z AUTO 10006KT 10SM BKN075 30/15 A2994 RMK A01
K5T9 240215Z AUTO 10006KT 10SM CLR 31/15 A2993 RMK A01
K5T9 240155Z AUTO 11007KT 10SM CLR 31/15 A2992 RMK A01
K5T9 240135Z AUTO 11010KT 10SM CLR 32/15 A2991 RMK A01
K5T9 240115Z AUTO 11010G16KT 10SM CLR 32/15 A2990 RMK A01
K5T9 240055Z AUTO 11009G19KT 10SM FEW080 33/15 A2989 RMK A01
K5T9 240035Z AUTO 10014KT 10SM SCT080 34/15 A2989 RMK A01
K5T9 240015Z AUTO 11012G21KT 10SM FEW080 34/15 A2989 RMK A01
K5T9 232355Z AUTO 10012G18KT 10SM CLR 34/15 A2989 RMK A01
K5T9 232335Z AUTO 11009G18KT 070V130 10SM FEW070 34/15 A2989 RMK A01
K5T9 232315Z AUTO 11012G21KT 10SM FEW070 34/16 A2989 RMK A01
K5T9 232255Z AUTO 12011G18KT 090V150 10SM FEW070 SCT080 35/16 A2989 RMK A01
K5T9 232235Z AUTO 13012G18KT 10SM BKN080 35/16 A2989 RMK A01
K5T9 232215Z AUTO 12013G20KT 10SM BKN070 35/16 A2990 RMK A01
K5T9 232155Z AUTO 07008G18KT 040V110 10SM BKN070 34/16 A2990 RMK A01
K5T9 232135Z AUTO VRB06G16KT 10SM SCT070 34/16 A2991 RMK A01
K5T9 232115Z AUTO 11010G19KT 10SM SCT065 34/16 A2992 RMK A01
K5T9 232055Z AUTO VRB06G16KT 10SM BKN060 34/16 A2993 RMK A01
K5T9 232035Z AUTO 09010G17KT 070V140 10SM BKN060 34/16 A2994 RMK A01
K5T9 232015Z AUTO 10008G17KT 070V140 10SM SCT060 34/17 A2994 RMK A01
K5T9 231955Z AUTO 14009G15KT 10SM FEW060 34/16 A2995 RMK A01
K5T9 231935Z AUTO 13008G17KT 10SM FEW055 34/17 A2996 RMK A01
K5T9 231915Z AUTO 12011KT 10SM CLR 33/17 A2997 RMK A01
K5T9 231855Z AUTO 09007G14KT 10SM FEW050 32/17 A2997 RMK A01
K5T9 231835Z AUTO 10009G17KT 040V170 10SM FEW049 31/17 A2998 RMK A01
K5T9 231815Z AUTO 09008G17KT 070V140 10SM FEW045 32/18 A2998 RMK A01
K5T9 231755Z AUTO 11012KT 10SM FEW043 31/18 A2999 RMK A01
K5T9 231735Z AUTO 12010G15KT 090V150 10SM SCT041 31/18 A3000 RMK A01
K5T9 231715Z AUTO VRB04G14KT 10SM FEW039 30/18 A3000 RMK A01
K5T9 231655Z AUTO VRB06G16KT 110V180 10SM FEW037 30/18 A3000 RMK A01
K5T9 231635Z AUTO 12012G18KT 080V150 10SM FEW034 29/18 A3001 RMK A01
K5T9 231615Z AUTO 13008G18KT 100V160 10SM SCT031 29/19 A3001 RMK A01
K5T9 231555Z AUTO 12008G16KT 090V150 10SM BKN028 29/19 A3001 RMK A01
K5T9 231535Z AUTO 12010G16KT 10SM BKN027 27/19 A3001 RMK A01
K5T9 231515Z AUTO 13011KT 10SM BKN023 27/19 A3002 RMK A01
K5T9 231455Z AUTO 14011KT 10SM BKN020 BKN024 27/20 A3002 RMK A01
K5T9 231435Z AUTO 13011G16KT 10SM BKN018 BKN022 26/20 A3001 RMK A01
K5T9 231415Z AUTO 14010G17KT 10SM BKN015 BKN020 25/20 A3001 RMK A01
K5T9 231355Z AUTO 12008KT 10SM SCT013 25/20 A3001 RMK A01
K5T9 231335Z AUTO 11010KT 10SM BKN022 24/21 A3001 RMK A01
K5T9 231315Z AUTO 11010KT 10SM FEW008 OVC022 23/20 A3001 RMK A01
K5T9 231255Z AUTO 11007KT 10SM BKN020 23/21 A3000 RMK A01
K5T9 231235Z AUTO 09006KT 10SM FEW005 FEW021 22/20 A3000 RMK A01
K5T9 231215Z AUTO 09006KT 10SM SCT021 22/20 A2999 RMK A01
K5T9 231155Z AUTO 10006KT 10SM OVC020 22/20 A2998 RMK A01
K5T9 231135Z AUTO 11007KT 10SM OVC020 22/20 A2997 RMK A01
K5T9 231115Z AUTO 11007KT 10SM OVC019 22/20 A2996 RMK A01
K5T9 231055Z AUTO 10007KT 10SM OVC018 22/20 A2996 RMK A01
K5T9 231035Z AUTO 10008KT 10SM BKN021 OVC048 22/20 A2995 RMK A01
K5T9 231015Z AUTO 09006KT 10SM FEW022 SCT040 BKN047 22/20 A2995 RMK A01
K5T9 230955Z AUTO 10007KT 10SM FEW022 SCT040 SCT050 22/20 A2994 RMK A01
K5T9 230935Z AUTO 10007KT 060V120 10SM CLR 22/20 A2994 RMK A01
K5T9 230915Z AUTO 10008KT 10SM CLR 22/20 A2993 RMK A01
K5T9 230855Z AUTO 10007KT 10SM CLR 22/20 A2992 RMK A01
K5T9 230835Z AUTO 10008KT 10SM CLR 23/20 A2992 RMK A01
K5T9 230815Z AUTO 11008G14KT 10SM CLR 23/20 A2992 RMK A01
K5T9 230755Z AUTO 11008G13KT 10SM FEW041 23/20 A2992 RMK A01
K5T9 230735Z AUTO 11008KT 10SM CLR 23/19 A2993 RMK A01
K5T9 230715Z AUTO 10008G14KT 10SM CLR 24/19 A2993 RMK A01
K5T9 230655Z AUTO 11008KT 10SM CLR 24/19 A2993 RMK A01
K5T9 230635Z AUTO 11009KT 10SM CLR 24/19 A2993 RMK A01
K5T9 230615Z AUTO 9/80000010G17KT 10SM CLR 24/19 A2993 RMK A01
K5T9 230555Z AUTO 11011KT 10SM FEW049 25/19 A2994 RMK A01
K5T9 230535Z AUTO 11010G16KT 10SM FEW050 25/19 A2994 RMK A01
K5T9 230515Z AUTO 10010G16KT 10SM FEW050 25/19 A2994 RMK A01
K5T9 230455Z AUTO 10009KT 10SM CLR 25/19 A2995 RMK A01
K5T9 230435Z AUTO 10008KT 10SM CLR 24/19 A2994 RMK A01
K5T9 230415Z AUTO 10007KT 10SM FEW055 24/18 A2994 RMK A01
K5T9 230355Z AUTO 09008KT 10SM FEW043 SCT050 25/18 A2993 RMK A01
K5T9 230335Z AUTO 10010KT 10SM FEW050 25/18 A2991 RMK A01
K5T9 230315Z AUTO 10008G14KT 10SM CLR 25/18 A2990 RMK A01
K5T9 230255Z AUTO 09009KT 10SM CLR 25/19 A2989 RMK A01
K5T9 230235Z AUTO 09009KT 10SM CLR 26/19 A2988 RMK A01
K5T9 230215Z AUTO 09007KT 10SM CLR 26/19 A2988 RMK A01
K5T9 230155Z AUTO 07006KT 10SM CLR 26/18 A2987 RMK A01
K5T9 230135Z AUTO 09004KT 10SM CLR 27/18 A2986 RMK A01
K5T9 230115Z AUTO 10005KT 10SM CLR 27/17 A2986 RMK A01
K5T9 230055Z AUTO 13010G17KT 10SM CLR 28/17 A2985 RMK A01
K5T9 230035Z AUTO 12008G15KT 10SM CLR 28/19 A2986 RMK A01
K5T9 230015Z AUTO 10008KT 10SM CLR 28/18 A2986 RMK A01
K5T9 222355Z AUTO VRB04G12KT 10SM CLR 28/18 A2986 RMK A01
K5T9 222335Z AUTO 12012G22KT 10SM FEW080 28/17 A2984 RMK A01
K5T9 222315Z AUTO 13018G28KT 9SM FEW060 27/16 A2985 RMK A01
K5T9 222255Z AUTO 17007KT 140V200 10SM FEW060 30/19 A2985 RMK A01
K5T9 222235Z AUTO 18006KT 10SM FEW060 32/17 A2985 RMK A01
K5T9 222215Z AUTO 14009KT 10SM CLR 33/17 A2986 RMK A01
K5T9 222155Z AUTO VRB05G13KT 10SM FEW060 33/17 A2986 RMK A01
K5T9 222135Z AUTO 13009G14KT 10SM CLR 33/17 A2986 RMK A01
K5T9 222115Z AUTO 13009G16KT 10SM FEW055 33/17 A2987 RMK A01
K5T9 222055Z AUTO 13009KT 10SM FEW060 FEW070 33/17 A2987 RMK A01
K5T9 222035Z AUTO 14011KT 10SM FEW055 FEW070 FEW100 33/17 A2988 RMK A01
K5T9 222015Z AUTO 15009KT 110V170 10SM FEW060 BKN095 33/17 A2989 RMK A01
K5T9 221955Z AUTO 15010G18KT 110V180 10SM SCT055 SCT065 BKN090 34/17 A2990 RMK A01